Time;durP1;ratioP1;P1;durP2;ratioP2;P2;SDS_P1;SDS_P2;PMS_P1;PMS_P2;Temp;Humidity;BMP_temperature;BMP_pressure;BME280_temperature;BME280_humidity;BME280_pressure;Samples;Min_cycle;Max_cycle;Signal;HPM_P1;HPM_P2
2023/04/13 00:04:37;;;;;;;1.50;0.22;;;;;;;8.30;74.17;98830.91;10414619;28;20049;-73
2023/04/13 00:09:40;;;;;;;0.40;0.20;;;;;;;8.37;74.02;98838.28;10413165;28;20088;-71
2023/04/13 00:14:42;;;;;;;1.38;0.35;;;;;;;8.31;73.84;98821.13;10415036;28;20132;-73
2023/04/13 00:19:46;;;;;;;0.80;0.40;;;;;;;8.29;73.90;98825.75;10414472;28;20049;-73
2023/04/13 00:24:48;;;;;;;2.47;0.50;;;;;;;8.30;73.75;98824.75;10412630;28;20099;-71
2023/04/13 00:29:50;;;;;;;1.38;0.45;;;;;;;8.23;72.88;98813.06;10412148;28;20041;-72
2023/04/13 00:34:54;;;;;;;1.23;0.30;;;;;;;8.30;73.05;98808.84;10411466;28;20048;-70
2023/04/13 00:39:56;;;;;;;0.68;0.28;;;;;;;8.31;72.97;98803.38;10413047;28;20055;-73
2023/04/13 00:44:58;;;;;;;1.48;0.22;;;;;;;8.18;71.63;98787.00;10412280;28;20242;-74
2023/04/13 00:50:01;;;;;;;1.33;0.63;;;;;;;8.13;71.42;98799.81;10423813;28;20061;-70
2023/04/13 00:55:02;;;;;;;1.27;0.40;;;;;;;8.10;71.20;98795.63;10430712;28;20051;-73
2023/04/13 01:00:08;;;;;;;1.42;0.75;;;;;;;8.03;71.26;98801.66;10407395;28;20045;-76
2023/04/13 01:05:11;;;;;;;0.90;0.20;;;;;;;8.01;70.59;98809.75;10407972;28;20072;-73
2023/04/13 01:10:26;;;;;;;1.98;0.22;;;;;;;7.99;70.66;98822.31;10408380;28;20048;-73
2023/04/13 01:15:34;;;;;;;1.10;0.40;;;;;;;7.94;70.72;98808.63;10408036;28;20135;-73
2023/04/13 01:20:39;;;;;;;0.88;0.30;;;;;;;8.02;70.96;98816.72;10411808;28;20143;-73
2023/04/13 01:26:10;;;;;;;1.48;0.47;;;;;;;8.03;70.87;98823.72;10412122;28;20045;-74
2023/04/13 01:31:12;;;;;;;2.33;0.65;;;;;;;7.97;70.92;98813.66;10410004;28;20321;-75
2023/04/13 01:36:15;;;;;;;1.85;0.20;;;;;;;7.91;70.43;98824.81;10404191;28;20045;-75
2023/04/13 01:41:17;;;;;;;1.70;0.52;;;;;;;7.93;70.58;98822.88;10411848;28;20052;-73
2023/04/13 01:46:23;;;;;;;0.82;0.20;;;;;;;7.91;70.44;98830.13;10408663;28;20143;-74
2023/04/13 01:51:30;;;;;;;0.60;0.38;;;;;;;8.00;69.46;98834.59;10408549;28;20071;-72
2023/04/13 01:56:32;;;;;;;0.93;0.30;;;;;;;7.88;69.21;98835.69;10407227;28;20645;-73
2023/04/13 02:01:33;;;;;;;1.08;0.30;;;;;;;7.91;69.45;98835.41;10408571;28;20056;-73
2023/04/13 02:06:38;;;;;;;1.35;0.40;;;;;;;7.86;69.40;98837.66;10406582;28;20569;-73
2023/04/13 02:11:39;;;;;;;;;;;;;;;7.90;69.52;98839.06;10408670;28;20692;-73
2023/04/13 02:16:41;;;;;;;2.17;0.43;;;;;;;7.88;68.17;98830.41;10408218;28;20566;-73
2023/04/13 02:21:42;;;;;;;2.38;0.70;;;;;;;7.86;67.62;98832.38;10408980;28;20530;-75
2023/04/13 02:26:44;;;;;;;0.88;0.30;;;;;;;7.82;67.80;98834.47;10407991;28;20103;-75
2023/04/13 02:31:45;;;;;;;1.88;0.47;;;;;;;7.75;68.49;98831.53;10409232;28;20060;-74
2023/04/13 02:36:47;;;;;;;3.72;0.60;;;;;;;7.73;67.73;98832.66;10408525;28;20049;-73
2023/04/13 02:41:48;;;;;;;3.33;0.85;;;;;;;7.82;67.59;98831.81;10408641;28;20060;-73
2023/04/13 02:46:50;;;;;;;3.58;0.50;;;;;;;7.94;67.30;98841.28;10407464;28;20491;-74
2023/04/13 02:51:51;;;;;;;2.70;0.60;;;;;;;8.02;66.60;98840.56;10406062;28;20184;-71
2023/04/13 02:56:52;;;;;;;1.75;0.47;;;;;;;8.04;66.58;98835.97;10405569;28;20678;-73
2023/04/13 03:01:57;;;;;;;1.58;0.50;;;;;;;8.10;66.84;98824.78;10397589;28;20135;-73
2023/04/13 03:06:58;;;;;;;2.58;0.73;;;;;;;8.10;66.92;98822.13;10412284;28;20071;-72
2023/04/13 03:12:01;;;;;;;2.08;0.65;;;;;;;8.16;66.58;98819.91;10415037;28;20067;-74
2023/04/13 03:17:03;;;;;;;1.85;0.50;;;;;;;8.12;66.63;98817.56;10412655;28;20048;-75
2023/04/13 03:22:05;;;;;;;2.47;0.50;;;;;;;7.96;66.32;98810.19;10413852;28;20529;-74
2023/04/13 03:27:07;;;;;;;5.22;0.73;;;;;;;8.02;66.41;98808.78;10414843;28;20045;-75
2023/04/13 03:32:08;;;;;;;1.90;1.00;;;;;;;8.05;66.33;98799.72;10412936;28;20052;-72
2023/04/13 03:37:10;;;;;;;2.60;0.68;;;;;;;8.10;66.35;98800.09;10413266;28;20045;-74
2023/04/13 03:42:12;;;;;;;2.42;0.52;;;;;;;8.14;66.14;98799.69;10413417;28;20049;-74
2023/04/13 03:47:13;;;;;;;2.05;0.50;;;;;;;8.07;65.86;98809.19;10414865;28;20040;-73
2023/04/13 03:52:15;;;;;;;2.63;0.50;;;;;;;8.18;66.13;98807.34;10422557;28;20118;-75
2023/04/13 03:57:16;;;;;;;3.50;0.70;;;;;;;7.97;65.75;98781.84;10421134;28;20095;-72
2023/04/13 04:02:18;;;;;;;2.80;1.10;;;;;;;8.17;66.16;98793.25;10413464;28;20064;-74
2023/04/13 04:07:22;;;;;;;1.90;0.70;;;;;;;8.12;65.74;98791.03;10412122;28;20048;-72
2023/04/13 04:12:23;;;;;;;4.15;0.70;;;;;;;8.21;66.01;98796.44;10413142;28;20143;-74
2023/04/13 04:17:24;;;;;;;2.78;0.60;;;;;;;8.19;65.74;98790.47;10411035;28;20110;-73
2023/04/13 04:22:28;;;;;;;2.92;0.85;;;;;;;8.12;65.25;98791.03;10410797;28;20047;-72
2023/04/13 04:27:36;;;;;;;2.53;0.60;;;;;;;8.19;65.32;98806.38;10412192;28;20040;-74
2023/04/13 04:32:39;;;;;;;3.50;0.85;;;;;;;8.18;65.02;98816.16;10410147;28;20145;-74
2023/04/13 04:37:40;;;;;;;6.10;1.80;;;;;;;8.22;65.26;98822.00;10408435;28;20434;-73
2023/04/13 04:42:42;;;;;;;3.95;1.15;;;;;;;8.26;65.14;98826.84;10409830;28;20067;-72
2023/04/13 04:47:43;;;;;;;2.90;0.95;;;;;;;8.22;64.72;98835.25;10409591;28;20603;-75
2023/04/13 04:52:45;;;;;;;2.25;0.77;;;;;;;8.22;65.00;98837.88;10410271;28;20053;-73
2023/04/13 04:57:48;;;;;;;5.18;0.95;;;;;;;8.33;64.56;98856.25;10400199;28;20076;-71
2023/04/13 05:02:50;;;;;;;1.65;0.65;;;;;;;8.38;64.85;98856.69;10412238;28;20176;-74
2023/04/13 05:07:52;;;;;;;4.05;0.88;;;;;;;8.39;65.08;98854.88;10406975;28;20045;-73
2023/04/13 05:12:54;;;;;;;1.85;0.82;;;;;;;8.46;65.00;98864.78;10412667;28;20496;-72
2023/04/13 05:17:56;;;;;;;2.70;1.25;;;;;;;8.47;65.39;98865.63;10413412;28;20437;-73
2023/04/13 05:22:58;;;;;;;4.82;1.40;;;;;;;8.48;65.57;98854.88;10411490;28;20526;-73
2023/04/13 05:27:59;;;;;;;3.38;0.73;;;;;;;8.53;65.55;98850.94;10404661;28;20044;-75
2023/04/13 05:33:04;;;;;;;2.95;0.80;;;;;;;8.45;65.38;98854.31;10468715;28;20049;-78
2023/04/13 05:38:06;;;;;;;4.30;1.42;;;;;;;8.48;65.52;98867.28;10455975;28;20098;-73
2023/04/13 05:43:07;;;;;;;2.42;0.85;;;;;;;8.55;66.16;98870.22;10416799;28;20191;-74
2023/04/13 05:48:09;;;;;;;3.38;0.80;;;;;;;8.51;65.78;98871.47;10409576;28;20424;-74
2023/04/13 05:53:11;;;;;;;2.80;1.00;;;;;;;8.51;65.46;98880.25;10409578;28;20056;-76
2023/04/13 05:58:12;;;;;;;6.82;1.63;;;;;;;8.45;65.41;98879.03;10411408;28;20055;-69
2023/04/13 06:03:14;;;;;;;4.80;1.00;;;;;;;8.54;65.40;98897.72;10411761;28;20059;-74
2023/04/13 06:08:16;;;;;;;3.53;1.27;;;;;;;8.62;65.45;98905.81;10406252;28;20135;-75
2023/04/13 06:13:18;;;;;;;5.45;1.23;;;;;;;8.63;65.30;98910.09;10410175;28;20049;-74
2023/04/13 06:18:19;;;;;;;4.50;1.20;;;;;;;8.63;64.93;98915.41;10407245;28;20059;-74
2023/04/13 06:23:21;;;;;;;4.88;0.90;;;;;;;8.62;64.83;98930.50;10397163;28;20124;-69
2023/04/13 06:28:27;;;;;;;2.08;0.82;;;;;;;8.63;64.99;98933.97;10386450;28;20543;-71
2023/04/13 06:33:30;;;;;;;3.97;1.80;;;;;;;8.71;65.00;98955.34;10381821;28;20613;-69
2023/04/13 06:38:31;;;;;;;4.45;1.42;;;;;;;8.62;64.69;98953.53;10384219;28;20049;-70
2023/04/13 06:43:33;;;;;;;6.90;1.38;;;;;;;8.68;64.38;98947.66;10385924;28;20599;-68
2023/04/13 06:48:34;;;;;;;3.03;1.38;;;;;;;8.78;64.95;98952.94;10385410;28;20536;-70
2023/04/13 06:53:36;;;;;;;5.75;1.27;;;;;;;8.80;64.26;98954.47;10387145;28;20053;-67
2023/04/13 06:58:37;;;;;;;2.55;0.95;;;;;;;8.92;63.96;98963.09;10384879;28;20692;-69
2023/04/13 07:03:40;;;;;;;5.72;1.73;;;;;;;8.83;63.62;98938.25;10385916;28;20056;-68
2023/04/13 07:08:41;;;;;;;6.60;1.70;;;;;;;8.97;62.97;98962.66;10382982;28;20076;-69
2023/04/13 07:13:42;;;;;;;6.95;1.70;;;;;;;8.95;63.24;98962.81;10387900;28;20060;-70
2023/04/13 07:18:44;;;;;;;4.50;1.38;;;;;;;8.85;63.06;98968.13;10384823;28;20067;-68
2023/04/13 07:23:46;;;;;;;3.67;1.73;;;;;;;8.97;62.99;98978.59;10382358;28;20154;-70
2023/04/13 07:28:47;;;;;;;5.53;1.95;;;;;;;8.93;63.49;98977.19;10386426;28;20049;-68
2023/04/13 07:33:49;;;;;;;5.10;1.23;;;;;;;8.76;63.96;98974.31;10387659;28;20045;-73
2023/04/13 07:38:51;;;;;;;4.13;1.48;;;;;;;8.98;63.86;99004.16;10387696;28;20103;-69
2023/04/13 07:43:53;;;;;;;3.65;1.60;;;;;;;9.04;63.75;99011.53;10384237;28;20592;-73
2023/04/13 07:48:54;;;;;;;5.95;1.23;;;;;;;8.96;63.45;99006.09;10390246;28;20081;-69
2023/04/13 07:53:56;;;;;;;6.03;1.23;;;;;;;9.07;63.70;99002.44;10396465;28;20971;-69
2023/04/13 07:58:57;;;;;;;4.28;0.90;;;;;;;9.33;63.53;99007.94;10393917;28;20069;-69
2023/04/13 08:03:59;;;;;;;4.25;1.42;;;;;;;9.32;63.69;99011.56;10393782;28;20041;-68
2023/04/13 08:09:01;;;;;;;5.68;1.35;;;;;;;9.15;63.93;99016.66;10392397;28;20049;-69
2023/04/13 08:14:03;;;;;;;4.88;1.23;;;;;;;9.13;63.95;99018.63;10400955;28;20301;-71
2023/04/13 08:19:05;;;;;;;4.47;1.25;;;;;;;9.29;64.26;99026.00;10408314;28;20073;-71
2023/04/13 08:24:06;;;;;;;3.38;0.98;;;;;;;9.32;63.79;99038.13;10411362;28;20091;-71
2023/04/13 08:29:09;;;;;;;3.15;1.55;;;;;;;9.15;64.38;99029.94;10412795;28;20190;-70
2023/04/13 08:34:11;;;;;;;5.80;1.60;;;;;;;9.11;64.93;99035.69;10399585;28;20538;-72
2023/04/13 08:39:13;;;;;;;5.45;1.20;;;;;;;9.13;65.09;99053.16;10409151;28;20431;-71
2023/04/13 08:44:16;;;;;;;4.47;1.17;;;;;;;9.14;65.40;99046.88;10412462;28;21894;-69
2023/04/13 08:49:17;;;;;;;3.58;1.02;;;;;;;9.06;65.66;99043.25;10417790;28;20048;-71
2023/04/13 08:54:19;;;;;;;5.63;1.45;;;;;;;9.18;65.64;99044.75;10414497;28;20048;-72
2023/04/13 08:59:22;;;;;;;4.80;1.88;;;;;;;9.26;65.32;99041.38;10410241;28;20045;-71
2023/04/13 09:04:30;;;;;;;8.07;1.40;;;;;;;9.43;65.35;99051.25;10401037;28;20047;-70
2023/04/13 09:09:35;;;;;;;6.32;1.58;;;;;;;9.57;66.41;99049.91;10410721;28;20604;-71
2023/04/13 09:14:37;;;;;;;5.57;1.38;;;;;;;9.61;65.41;99058.41;10409416;28;20056;-73
2023/04/13 09:19:38;;;;;;;5.93;1.10;;;;;;;9.64;66.16;99058.16;10410086;28;20084;-70
2023/04/13 09:24:41;;;;;;;5.75;1.40;;;;;;;9.89;64.78;99061.94;10408949;28;20057;-70
2023/04/13 09:29:50;;;;;;;4.18;1.05;;;;;;;9.86;65.10;99068.41;10411147;28;20140;-72
2023/04/13 09:35:03;;;;;;;5.85;1.27;;;;;;;10.04;65.41;99071.09;10410361;28;20048;-67
2023/04/13 09:40:12;;;;;;;3.20;2.03;;;;;;;10.01;68.25;99082.03;10409580;28;20040;-71
2023/04/13 09:45:13;;;;;;;10.63;1.48;;;;;;;10.21;68.68;99084.56;10408809;28;20053;-70
2023/04/13 09:50:20;;;;;;;4.05;1.40;;;;;;;10.19;69.47;99090.03;10408804;28;20045;-72
2023/04/13 09:55:22;;;;;;;5.35;1.77;;;;;;;10.32;69.74;99088.84;10406100;28;20044;-69
2023/04/13 10:00:24;;;;;;;6.22;1.80;;;;;;;10.30;69.48;99090.78;10410732;28;20196;-70
2023/04/13 10:05:26;;;;;;;3.95;1.80;;;;;;;10.37;69.09;99091.91;10410012;28;20099;-69
2023/04/13 10:10:29;;;;;;;2.50;1.03;;;;;;;10.11;65.72;99092.59;10410020;28;20079;-71
2023/04/13 10:16:08;;;;;;;2.85;0.80;;;;;;;10.32;65.45;99099.47;10413162;28;20053;-71
2023/04/13 10:21:12;;;;;;;3.78;0.85;;;;;;;10.44;64.97;99106.28;10411408;28;20492;-68
2023/04/13 10:26:13;;;;;;;2.58;0.80;;;;;;;10.72;64.64;99095.53;10410142;28;20045;-69
2023/04/13 10:31:15;;;;;;;3.70;1.20;;;;;;;12.58;59.45;99075.53;10409071;28;20060;-69
2023/04/13 10:36:17;;;;;;;3.15;0.75;;;;;;;13.82;53.58;99083.41;10405534;28;20045;-71
2023/04/13 10:41:25;;;;;;;2.97;0.90;;;;;;;12.25;57.78;99075.47;10408580;28;20422;-71
2023/04/13 10:46:27;;;;;;;4.65;0.70;;;;;;;13.12;59.46;99088.41;10423019;28;20057;-72
2023/04/13 10:51:42;;;;;;;2.38;0.70;;;;;;;16.07;51.15;99092.00;10408752;28;20056;-70
2023/04/13 10:56:55;;;;;;;3.08;1.00;;;;;;;19.86;42.78;99081.63;10406507;28;20060;-73
2023/04/13 11:01:57;;;;;;;1.73;0.40;;;;;;;22.89;34.11;99064.06;10408268;28;20053;-72
2023/04/13 11:06:58;;;;;;;2.42;0.50;;;;;;;25.52;29.37;99061.97;10402774;28;20060;-70
2023/04/13 11:12:00;;;;;;;1.05;0.52;;;;;;;26.45;28.64;99071.28;10406401;28;20056;-72
2023/04/13 11:17:01;;;;;;;3.38;0.77;;;;;;;23.91;30.22;99064.81;10407757;28;20626;-72
2023/04/13 11:22:02;;;;;;;1.92;0.40;;;;;;;21.62;35.07;99081.13;10408248;28;20145;-72
2023/04/13 11:27:23;;;;;;;2.10;0.60;;;;;;;18.11;40.31;99067.22;10415035;28;20060;-73
2023/04/13 11:32:25;;;;;;;1.60;0.45;;;;;;;15.69;46.02;99060.72;10415123;28;20052;-70
2023/04/13 11:37:27;;;;;;;2.20;1.30;;;;;;;14.82;49.03;99062.09;10416013;28;20063;-74
2023/04/13 11:42:30;;;;;;;3.05;0.80;;;;;;;14.29;50.96;99059.28;10414053;28;20049;-74
2023/04/13 11:47:33;;;;;;;3.27;0.50;;;;;;;13.83;51.65;99059.16;10413916;28;20463;-70
2023/04/13 11:52:35;;;;;;;2.38;0.40;;;;;;;13.52;50.85;99069.81;10414136;28;20049;-71
2023/04/13 11:57:36;;;;;;;2.35;0.70;;;;;;;13.37;50.94;99057.13;10411880;28;20149;-71
2023/04/13 12:02:40;;;;;;;2.88;0.95;;;;;;;13.26;51.44;99060.16;10414786;28;20149;-70
2023/04/13 12:08:01;;;;;;;5.18;1.48;;;;;;;12.97;59.53;99071.34;10418898;28;20099;-70
2023/04/13 12:13:12;;;;;;;2.13;0.77;;;;;;;16.52;52.19;99065.84;10411991;28;20141;-72
2023/04/13 12:18:18;;;;;;;2.05;0.50;;;;;;;22.88;39.42;99057.00;10413357;28;20251;-72
2023/04/13 12:23:28;;;;;;;1.90;1.08;;;;;;;22.60;38.77;99050.34;10412826;28;20049;-73
2023/04/13 12:28:36;;;;;;;3.88;1.60;;;;;;;21.07;40.11;99039.38;10413372;28;20748;-73
2023/04/13 12:33:38;;;;;;;1.38;0.57;;;;;;;19.32;39.45;99046.66;10410914;28;20060;-74
2023/04/13 12:38:40;;;;;;;2.08;0.60;;;;;;;17.65;42.08;99047.13;10410527;28;20065;-72
2023/04/13 12:43:41;;;;;;;2.13;0.47;;;;;;;16.57;44.33;99039.28;10412388;28;20053;-73
2023/04/13 12:48:43;;;;;;;2.97;0.47;;;;;;;15.64;45.46;99038.16;10412407;28;20986;-74
2023/04/13 12:53:44;;;;;;;2.13;0.80;;;;;;;15.37;48.52;99048.50;10409939;28;20100;-73
2023/04/13 12:58:47;;;;;;;1.33;0.30;;;;;;;15.00;49.43;99045.69;10408053;28;20091;-71
2023/04/13 13:03:48;;;;;;;1.25;0.60;;;;;;;14.54;50.98;99058.28;10411547;28;20726;-71
2023/04/13 13:08:50;;;;;;;1.90;0.75;;;;;;;14.59;51.62;99066.59;10408012;28;20560;-71
2023/04/13 13:13:51;;;;;;;0.65;0.20;;;;;;;13.57;52.00;99099.53;10410001;28;20055;-71
2023/04/13 13:18:53;;;;;;;0.35;0.10;;;;;;;12.99;54.29;99104.09;10409327;28;20068;-71
2023/04/13 13:23:54;;;;;;;0.17;0.08;;;;;;;12.02;57.93;99110.75;10410776;28;20535;-73
2023/04/13 13:28:56;;;;;;;0.20;0.10;;;;;;;11.86;60.22;99116.00;10408916;28;20063;-72
2023/04/13 13:33:58;;;;;;;0.47;0.10;;;;;;;11.25;62.34;99118.63;10411989;28;20068;-68
2023/04/13 13:38:59;;;;;;;2.28;0.17;;;;;;;11.53;62.97;99120.28;10409535;28;20067;-71
2023/04/13 13:44:01;;;;;;;0.60;0.20;;;;;;;11.26;64.02;99136.28;10409563;28;20137;-70
2023/04/13 13:49:03;;;;;;;0.85;0.30;;;;;;;11.51;65.99;99144.44;10409860;28;20510;-70
2023/04/13 13:54:05;;;;;;;0.30;0.13;;;;;;;11.73;64.29;99136.91;10411882;28;20139;-66
2023/04/13 13:59:07;;;;;;;0.88;0.20;;;;;;;11.72;65.37;99146.72;10413028;28;20579;-68
2023/04/13 14:04:09;;;;;;;0.45;0.10;;;;;;;11.77;64.84;99151.56;10408610;28;20048;-71
2023/04/13 14:09:11;;;;;;;4.07;0.30;;;;;;;11.80;63.61;99149.44;10407885;28;20419;-68
2023/04/13 14:14:12;;;;;;;1.67;0.20;;;;;;;11.75;60.64;99133.06;10406843;28;20051;-71
2023/04/13 14:19:22;;;;;;;0.60;0.20;;;;;;;11.88;61.69;99135.31;10407811;28;20171;-70
2023/04/13 14:24:23;;;;;;;0.45;0.20;;;;;;;11.94;61.99;99145.38;10406510;28;20139;-71
2023/04/13 14:29:26;;;;;;;1.85;0.40;;;;;;;12.01;61.54;99141.09;10409103;28;20132;-69
2023/04/13 14:34:28;;;;;;;2.35;0.40;;;;;;;12.14;62.99;99155.78;10410805;28;20160;-71
2023/04/13 14:39:29;;;;;;;2.03;0.50;;;;;;;12.32;63.45;99159.19;10431621;28;20059;-72
2023/04/13 14:44:31;;;;;;;1.17;0.40;;;;;;;12.47;61.42;99146.06;10453550;28;20150;-68
2023/04/13 14:49:32;;;;;;;1.90;0.30;;;;;;;12.71;60.31;99147.13;10413434;28;20049;-65
2023/04/13 14:54:34;;;;;;;0.75;0.30;;;;;;;12.78;59.71;99152.66;10407993;28;20524;-69
2023/04/13 14:59:36;;;;;;;2.88;0.20;;;;;;;12.73;58.92;99156.66;10411149;28;20045;-72
2023/04/13 15:04:37;;;;;;;0.45;0.15;;;;;;;12.64;56.77;99154.97;10420282;28;20056;-72
2023/04/13 15:09:39;;;;;;;1.83;0.25;;;;;;;12.59;57.37;99159.13;10419955;28;20454;-70
2023/04/13 15:14:45;;;;;;;2.08;0.30;;;;;;;12.57;58.27;99167.28;10421600;28;20056;-66
2023/04/13 15:19:46;;;;;;;1.65;0.25;;;;;;;12.50;57.63;99179.59;10438101;28;20508;-70
2023/04/13 15:24:48;;;;;;;0.68;0.20;;;;;;;12.42;58.20;99185.75;10453902;28;20079;-72
2023/04/13 15:29:57;;;;;;;1.00;0.20;;;;;;;12.45;57.30;99196.13;10432471;28;20068;-69
2023/04/13 15:34:58;;;;;;;1.23;0.20;;;;;;;12.42;57.56;99188.44;10428588;28;20260;-70
2023/04/13 15:40:00;;;;;;;0.90;0.30;;;;;;;12.42;57.33;99198.28;10436263;28;20752;-70
2023/04/13 15:45:02;;;;;;;1.85;0.32;;;;;;;12.33;57.76;99186.72;10436800;28;20597;-67
2023/04/13 15:50:04;;;;;;;0.80;0.30;;;;;;;12.31;58.42;99194.03;10426672;28;20073;-70
2023/04/13 15:55:06;;;;;;;2.55;0.68;;;;;;;12.30;58.87;99187.88;10422219;28;22304;-71
2023/04/13 16:00:08;;;;;;;1.80;0.50;;;;;;;12.19;57.84;99181.00;10421467;28;20473;-70
2023/04/13 16:05:10;;;;;;;2.20;0.52;;;;;;;12.24;58.55;99199.19;10418348;28;20725;-67
2023/04/13 16:10:15;;;;;;;2.97;0.55;;;;;;;12.14;58.83;99198.47;10417888;28;20059;-67
2023/04/13 16:15:18;;;;;;;1.02;0.50;;;;;;;12.14;58.89;99211.81;10417580;28;20099;-70
2023/04/13 16:20:20;;;;;;;2.05;0.70;;;;;;;11.99;59.99;99225.75;10417058;28;20060;-70
2023/04/13 16:25:22;;;;;;;3.10;1.20;;;;;;;11.79;64.82;99251.75;10418280;28;20111;-71
2023/04/13 16:30:24;;;;;;;5.22;2.00;;;;;;;11.67;66.92;99240.50;10417659;28;20088;-70
2023/04/13 16:35:25;;;;;;;1.58;0.57;;;;;;;11.51;65.58;99248.38;10416323;28;20049;-72
2023/04/13 16:40:27;;;;;;;1.73;0.47;;;;;;;11.46;64.58;99253.34;10413504;28;20547;-74
2023/04/13 16:45:28;;;;;;;2.13;0.70;;;;;;;11.39;63.29;99260.25;10416159;28;20137;-68
2023/04/13 16:50:30;;;;;;;1.60;0.40;;;;;;;11.36;65.35;99253.41;10415888;28;20573;-73
2023/04/13 16:55:32;;;;;;;0.55;0.20;;;;;;;11.34;63.73;99249.25;10412536;28;20045;-68
2023/04/13 17:00:34;;;;;;;2.08;0.63;;;;;;;11.27;64.76;99255.19;10413339;28;20044;-66
2023/04/13 17:05:36;;;;;;;2.95;0.60;;;;;;;11.31;65.51;99261.84;10415399;28;20079;-69
2023/04/13 17:10:37;;;;;;;2.53;0.80;;;;;;;11.35;65.08;99261.53;10413385;28;20044;-69
2023/04/13 17:15:38;;;;;;;2.15;1.10;;;;;;;11.17;66.02;99254.41;10413524;28;20053;-70
2023/04/13 17:20:40;;;;;;;3.30;0.70;;;;;;;10.81;68.08;99259.69;10412566;28;20045;-68
2023/04/13 17:25:41;;;;;;;3.33;1.15;;;;;;;10.85;69.81;99271.69;10412347;28;20049;-70
2023/04/13 17:30:43;;;;;;;2.78;1.00;;;;;;;10.88;70.22;99279.38;10414662;28;20076;-68
2023/04/13 17:35:45;;;;;;;2.40;0.80;;;;;;;10.89;70.93;99289.06;10413549;28;20647;-70
2023/04/13 17:40:46;;;;;;;2.88;1.50;;;;;;;10.81;70.45;99307.63;10413305;28;20049;-71
2023/04/13 17:45:47;;;;;;;4.82;3.30;;;;;;;10.78;71.63;99313.25;10410446;28;20064;-68
2023/04/13 17:50:49;;;;;;;3.10;2.10;;;;;;;10.71;71.71;99306.81;10411393;28;20057;-71
2023/04/13 17:55:50;;;;;;;3.53;1.85;;;;;;;10.70;70.71;99310.47;10411497;28;20051;-71
2023/04/13 18:00:51;;;;;;;2.60;1.92;;;;;;;10.66;71.33;99304.59;10409908;28;20102;-70
2023/04/13 18:05:53;;;;;;;3.65;2.50;;;;;;;10.74;71.88;99311.84;10411224;28;20056;-70
2023/04/13 18:10:55;;;;;;;2.75;1.30;;;;;;;10.70;71.77;99310.47;10410061;28;20060;-70
2023/04/13 18:15:57;;;;;;;2.15;0.52;;;;;;;10.73;71.91;99328.78;10411853;28;21002;-67
2023/04/13 18:20:58;;;;;;;2.58;1.40;;;;;;;10.61;73.06;99329.00;10408694;28;20041;-69
2023/04/13 18:26:00;;;;;;;2.60;1.10;;;;;;;10.58;73.08;99329.28;10408899;28;20132;-70
2023/04/13 18:31:02;;;;;;;2.33;1.02;;;;;;;10.52;73.66;99324.53;10411177;28;20504;-69
2023/04/13 18:36:04;;;;;;;2.60;0.80;;;;;;;10.49;73.88;99330.16;10406900;28;20063;-69
2023/04/13 18:41:06;;;;;;;1.95;1.35;;;;;;;10.45;74.88;99339.41;10408189;28;20575;-69
2023/04/13 18:46:07;;;;;;;3.10;1.10;;;;;;;10.40;74.89;99352.31;10408443;28;20203;-68
2023/04/13 18:51:11;;;;;;;2.10;1.00;;;;;;;10.47;74.90;99369.38;10409120;28;20057;-71
2023/04/13 18:56:12;;;;;;;2.85;1.52;;;;;;;10.42;75.45;99366.31;10409187;28;20113;-68
2023/04/13 19:01:18;;;;;;;3.53;1.38;;;;;;;10.48;74.01;99376.38;10411875;28;20103;-68
2023/04/13 19:06:19;;;;;;;2.63;1.55;;;;;;;10.44;75.02;99373.16;10408527;28;20403;-70
2023/04/13 19:11:23;;;;;;;4.22;1.77;;;;;;;10.46;75.29;99388.97;10408051;28;20863;-69
2023/04/13 19:16:25;;;;;;;4.22;1.48;;;;;;;10.47;75.81;99380.03;10407663;28;20626;-69
2023/04/13 19:21:26;;;;;;;4.00;1.98;;;;;;;10.46;75.30;99378.31;10408483;28;20599;-69
2023/04/13 19:26:28;;;;;;;3.90;2.65;;;;;;;10.50;75.88;99382.38;10409223;28;20780;-71
2023/04/13 19:31:34;;;;;;;5.47;2.20;;;;;;;10.45;76.06;99382.00;10413224;28;20887;-69
2023/04/13 19:36:37;;;;;;;4.75;2.30;;;;;;;10.41;76.02;99380.59;10411907;28;20045;-72
2023/04/13 19:41:40;;;;;;;2.40;1.67;;;;;;;10.37;75.74;99377.41;10410552;28;20111;-67
2023/04/13 19:46:45;;;;;;;4.63;3.28;;;;;;;10.41;75.78;99376.09;10416205;28;20067;-71
2023/04/13 19:51:46;;;;;;;4.63;2.88;;;;;;;10.42;75.57;99382.28;10415539;28;20670;-73
2023/04/13 19:56:48;;;;;;;5.50;2.90;;;;;;;10.43;76.28;99381.28;10413636;28;20055;-69
2023/04/13 20:01:49;;;;;;;4.90;2.63;;;;;;;10.42;76.15;99377.78;10413808;28;20052;-69
2023/04/13 20:06:52;;;;;;;4.43;3.10;;;;;;;10.38;76.46;99380.88;10412154;28;20060;-68
2023/04/13 20:11:53;;;;;;;5.60;2.90;;;;;;;10.32;76.95;99384.91;10411567;28;20099;-70
2023/04/13 20:16:55;;;;;;;3.42;2.38;;;;;;;10.32;76.50;99376.09;10415115;28;20055;-67
2023/04/13 20:22:00;;;;;;;2.90;1.80;;;;;;;10.29;75.96;99355.13;10411668;28;20049;-70
2023/04/13 20:27:02;;;;;;;2.75;1.88;;;;;;;10.34;75.68;99367.00;10415186;28;20058;-70
2023/04/13 20:32:04;;;;;;;3.90;2.65;;;;;;;10.35;76.16;99375.84;10415372;28;20048;-70
2023/04/13 20:37:13;;;;;;;2.80;2.08;;;;;;;10.42;76.02;99392.94;10414925;28;20064;-70
2023/04/13 20:42:18;;;;;;;4.50;3.10;;;;;;;10.43;76.37;99391.91;10411852;28;20467;-71
2023/04/13 20:47:24;;;;;;;4.10;2.88;;;;;;;10.37;76.42;99400.47;10414240;28;20045;-69
2023/04/13 20:52:28;;;;;;;4.18;3.25;;;;;;;10.35;76.19;99394.47;10415055;28;20702;-72
2023/04/13 20:57:30;;;;;;;4.50;3.35;;;;;;;10.36;76.61;99391.66;10412190;28;20063;-67
2023/04/13 21:02:32;;;;;;;5.38;3.65;;;;;;;10.39;76.18;99399.38;10412643;28;20067;-68
2023/04/13 21:07:39;;;;;;;5.30;3.40;;;;;;;10.46;75.86;99402.28;10409878;28;20041;-70
2023/04/13 21:12:40;;;;;;;4.35;3.10;;;;;;;10.37;76.21;99395.16;10410376;28;20136;-72
2023/04/13 21:17:41;;;;;;;4.90;4.25;;;;;;;10.36;76.01;99409.47;10410705;28;20045;-73
2023/04/13 21:22:43;;;;;;;4.03;3.33;;;;;;;10.36;76.83;99409.47;10413673;28;20049;-73
2023/04/13 21:27:44;;;;;;;5.10;3.30;;;;;;;10.24;76.26;99396.28;10411026;28;20040;-70
2023/04/13 21:32:46;;;;;;;4.78;3.13;;;;;;;10.22;76.39;99398.25;10413289;28;20072;-72
2023/04/13 21:37:47;;;;;;;6.65;3.72;;;;;;;10.17;76.41;99400.47;10410978;28;20048;-72
2023/04/13 21:42:49;;;;;;;6.18;4.25;;;;;;;10.16;76.50;99411.25;10411576;28;20083;-71
2023/04/13 21:47:52;;;;;;;7.60;5.97;;;;;;;10.14;76.75;99400.75;10412925;28;20451;-72
2023/04/13 21:52:54;;;;;;;5.50;4.83;;;;;;;10.03;77.05;99399.09;10411946;28;20064;-72
2023/04/13 21:57:56;;;;;;;4.90;4.38;;;;;;;10.02;76.47;99407.22;10409608;28;20728;-66
2023/04/13 22:02:57;;;;;;;6.75;4.65;;;;;;;9.97;76.06;99409.44;10408821;28;20132;-69
2023/04/13 22:07:59;;;;;;;5.05;4.38;;;;;;;9.91;76.62;99410.88;10407380;28;20127;-72
2023/04/13 22:13:00;;;;;;;6.53;4.45;;;;;;;9.82;76.99;99404.56;10404505;28;20566;-70
2023/04/13 22:18:02;;;;;;;4.97;4.20;;;;;;;9.80;77.13;99395.88;10406797;28;20045;-69
2023/04/13 22:23:03;;;;;;;5.93;4.60;;;;;;;9.75;77.17;99395.47;10404316;28;20140;-72
2023/04/13 22:28:05;;;;;;;5.07;4.57;;;;;;;9.69;77.61;99398.69;10406164;28;20053;-68
2023/04/13 22:33:06;;;;;;;5.28;4.47;;;;;;;9.68;77.53;99394.31;10405677;28;20056;-73
2023/04/13 22:38:07;;;;;;;5.82;4.15;;;;;;;9.63;78.06;99396.56;10406573;28;20045;-72
2023/04/13 22:43:09;;;;;;;5.72;4.85;;;;;;;9.55;78.09;99414.03;10406216;28;20061;-71
2023/04/13 22:48:10;;;;;;;4.68;4.28;;;;;;;9.47;78.00;99424.53;10408339;28;20146;-69
2023/04/13 22:53:12;;;;;;;5.18;4.60;;;;;;;9.41;78.09;99430.34;10409499;28;20163;-72
2023/04/13 22:58:13;;;;;;;7.88;6.90;;;;;;;9.31;78.68;99425.03;10411442;28;20785;-71
2023/04/13 23:03:15;;;;;;;7.40;6.78;;;;;;;9.32;79.01;99433.84;10417384;28;21661;-73
2023/04/13 23:08:16;;;;;;;5.85;5.25;;;;;;;9.18;78.91;99419.94;10441058;28;20059;-68
2023/04/13 23:13:18;;;;;;;6.03;5.43;;;;;;;9.25;78.79;99428.25;10443920;28;20048;-70
2023/04/13 23:18:19;;;;;;;5.57;4.97;;;;;;;9.29;78.15;99450.03;10420540;28;20666;-70
2023/04/13 23:23:21;;;;;;;6.03;5.32;;;;;;;9.18;78.73;99458.97;10417785;28;20053;-71
2023/04/13 23:28:22;;;;;;;6.25;5.75;;;;;;;9.12;79.31;99468.28;10415125;28;20049;-72
2023/04/13 23:33:23;;;;;;;6.60;5.78;;;;;;;9.03;79.14;99454.00;10411705;28;20055;-69
2023/04/13 23:38:25;;;;;;;12.02;5.20;;;;;;;9.06;79.53;99452.06;10413195;28;20048;-69